sensor_id;sensor_type;location;lat;lon;timestamp;P1;durP1;ratioP1;P2;durP2;ratioP2
29478;SDS011;16437;41.836;23.480;2022-10-22T00:01:06;8.65;;;5.53;;
29478;SDS011;16437;41.836;23.480;2022-10-22T00:06:32;9.73;;;5.70;;
29478;SDS011;16437;41.836;23.480;2022-10-22T00:11:59;10.60;;;5.97;;
29478;SDS011;16437;41.836;23.480;2022-10-22T00:17:26;10.13;;;6.40;;
29478;SDS011;16437;41.836;23.480;2022-10-22T00:22:52;11.03;;;5.80;;
29478;SDS011;16437;41.836;23.480;2022-10-22T00:28:18;8.70;;;5.62;;
29478;SDS011;16437;41.836;23.480;2022-10-22T00:33:45;7.75;;;5.35;;
29478;SDS011;16437;41.836;23.480;2022-10-22T00:39:13;8.25;;;5.70;;
29478;SDS011;16437;41.836;23.480;2022-10-22T00:44:59;9.00;;;5.75;;
29478;SDS011;16437;41.836;23.480;2022-10-22T00:50:42;8.58;;;5.03;;
29478;SDS011;16437;41.836;23.480;2022-10-22T00:56:10;8.10;;;5.42;;
29478;SDS011;16437;41.836;23.480;2022-10-22T01:01:37;9.18;;;5.50;;
29478;SDS011;16437;41.836;23.480;2022-10-22T01:07:03;8.25;;;5.35;;
29478;SDS011;16437;41.836;23.480;2022-10-22T01:12:38;9.10;;;5.40;;
29478;SDS011;16437;41.836;23.480;2022-10-22T01:18:20;9.20;;;5.70;;
29478;SDS011;16437;41.836;23.480;2022-10-22T01:29:39;9.98;;;5.90;;
29478;SDS011;16437;41.836;23.480;2022-10-22T01:35:14;7.78;;;5.42;;
29478;SDS011;16437;41.836;23.480;2022-10-22T01:40:42;8.98;;;5.83;;
29478;SDS011;16437;41.836;23.480;2022-10-22T01:46:09;9.95;;;5.83;;
29478;SDS011;16437;41.836;23.480;2022-10-22T01:51:40;9.13;;;5.42;;
29478;SDS011;16437;41.836;23.480;2022-10-22T01:57:19;9.95;;;6.22;;
29478;SDS011;16437;41.836;23.480;2022-10-22T02:02:48;7.97;;;5.65;;
29478;SDS011;16437;41.836;23.480;2022-10-22T02:08:18;7.95;;;5.40;;
29478;SDS011;16437;41.836;23.480;2022-10-22T02:13:50;8.80;;;5.97;;
29478;SDS011;16437;41.836;23.480;2022-10-22T02:19:29;9.15;;;5.12;;
29478;SDS011;16437;41.836;23.480;2022-10-22T02:24:55;9.30;;;6.08;;
29478;SDS011;16437;41.836;23.480;2022-10-22T02:30:23;9.35;;;6.22;;
29478;SDS011;16437;41.836;23.480;2022-10-22T02:35:50;8.98;;;5.95;;
29478;SDS011;16437;41.836;23.480;2022-10-22T02:41:18;8.35;;;5.85;;
29478;SDS011;16437;41.836;23.480;2022-10-22T02:46:45;7.72;;;5.50;;
29478;SDS011;16437;41.836;23.480;2022-10-22T02:52:11;8.53;;;5.47;;
29478;SDS011;16437;41.836;23.480;2022-10-22T02:57:38;8.65;;;5.55;;
29478;SDS011;16437;41.836;23.480;2022-10-22T03:03:04;8.15;;;5.70;;
29478;SDS011;16437;41.836;23.480;2022-10-22T03:08:31;7.15;;;4.97;;
29478;SDS011;16437;41.836;23.480;2022-10-22T03:13:57;8.63;;;5.58;;
29478;SDS011;16437;41.836;23.480;2022-10-22T03:19:24;8.28;;;5.75;;
29478;SDS011;16437;41.836;23.480;2022-10-22T03:24:51;7.70;;;5.45;;
29478;SDS011;16437;41.836;23.480;2022-10-22T03:30:21;7.57;;;5.67;;
29478;SDS011;16437;41.836;23.480;2022-10-22T03:35:48;7.58;;;5.92;;
29478;SDS011;16437;41.836;23.480;2022-10-22T03:41:14;7.60;;;5.60;;
29478;SDS011;16437;41.836;23.480;2022-10-22T03:46:41;7.70;;;5.50;;
29478;SDS011;16437;41.836;23.480;2022-10-22T03:52:13;8.25;;;5.80;;
29478;SDS011;16437;41.836;23.480;2022-10-22T03:57:37;8.03;;;5.62;;
29478;SDS011;16437;41.836;23.480;2022-10-22T04:03:04;7.08;;;5.33;;
29478;SDS011;16437;41.836;23.480;2022-10-22T04:08:31;7.22;;;5.42;;
29478;SDS011;16437;41.836;23.480;2022-10-22T04:13:58;6.90;;;5.22;;
29478;SDS011;16437;41.836;23.480;2022-10-22T04:19:24;8.25;;;6.30;;
29478;SDS011;16437;41.836;23.480;2022-10-22T04:24:50;8.88;;;5.85;;
29478;SDS011;16437;41.836;23.480;2022-10-22T04:30:17;8.58;;;5.72;;
29478;SDS011;16437;41.836;23.480;2022-10-22T04:35:43;9.23;;;6.60;;
29478;SDS011;16437;41.836;23.480;2022-10-22T04:46:42;11.22;;;6.95;;
29478;SDS011;16437;41.836;23.480;2022-10-22T04:52:08;9.48;;;6.60;;
29478;SDS011;16437;41.836;23.480;2022-10-22T04:57:35;12.10;;;7.78;;
29478;SDS011;16437;41.836;23.480;2022-10-22T05:03:02;9.68;;;7.08;;
29478;SDS011;16437;41.836;23.480;2022-10-22T05:08:28;11.12;;;8.00;;
29478;SDS011;16437;41.836;23.480;2022-10-22T05:14:00;11.55;;;8.15;;
29478;SDS011;16437;41.836;23.480;2022-10-22T05:19:23;11.83;;;8.68;;
29478;SDS011;16437;41.836;23.480;2022-10-22T05:24:54;13.65;;;8.70;;
29478;SDS011;16437;41.836;23.480;2022-10-22T05:30:21;13.75;;;9.13;;
29478;SDS011;16437;41.836;23.480;2022-10-22T05:35:48;13.30;;;9.70;;
29478;SDS011;16437;41.836;23.480;2022-10-22T05:41:20;14.85;;;10.40;;
29478;SDS011;16437;41.836;23.480;2022-10-22T05:46:45;16.50;;;11.68;;
29478;SDS011;16437;41.836;23.480;2022-10-22T05:52:11;20.35;;;13.58;;
29478;SDS011;16437;41.836;23.480;2022-10-22T05:57:38;20.75;;;12.95;;
29478;SDS011;16437;41.836;23.480;2022-10-22T06:03:05;18.32;;;13.38;;
29478;SDS011;16437;41.836;23.480;2022-10-22T06:08:32;20.52;;;14.13;;
29478;SDS011;16437;41.836;23.480;2022-10-22T06:13:58;22.55;;;14.80;;
29478;SDS011;16437;41.836;23.480;2022-10-22T06:19:25;20.68;;;15.43;;
29478;SDS011;16437;41.836;23.480;2022-10-22T06:24:51;22.30;;;16.30;;
29478;SDS011;16437;41.836;23.480;2022-10-22T06:30:17;23.00;;;16.20;;
29478;SDS011;16437;41.836;23.480;2022-10-22T06:35:44;23.30;;;16.25;;
29478;SDS011;16437;41.836;23.480;2022-10-22T06:41:13;24.40;;;17.00;;
29478;SDS011;16437;41.836;23.480;2022-10-22T06:46:40;24.23;;;17.17;;
29478;SDS011;16437;41.836;23.480;2022-10-22T06:52:07;26.40;;;17.62;;
29478;SDS011;16437;41.836;23.480;2022-10-22T06:57:33;24.60;;;17.48;;
29478;SDS011;16437;41.836;23.480;2022-10-22T07:03:00;26.42;;;17.73;;
29478;SDS011;16437;41.836;23.480;2022-10-22T07:08:27;25.70;;;18.30;;
29478;SDS011;16437;41.836;23.480;2022-10-22T07:13:55;23.60;;;16.62;;
29478;SDS011;16437;41.836;23.480;2022-10-22T07:19:22;25.08;;;18.17;;
29478;SDS011;16437;41.836;23.480;2022-10-22T07:24:49;24.52;;;17.35;;
29478;SDS011;16437;41.836;23.480;2022-10-22T07:30:16;24.75;;;17.52;;
29478;SDS011;16437;41.836;23.480;2022-10-22T07:35:42;27.75;;;17.55;;
29478;SDS011;16437;41.836;23.480;2022-10-22T07:41:09;22.27;;;17.00;;
29478;SDS011;16437;41.836;23.480;2022-10-22T07:46:36;23.80;;;17.00;;
29478;SDS011;16437;41.836;23.480;2022-10-22T07:52:02;27.67;;;18.17;;
29478;SDS011;16437;41.836;23.480;2022-10-22T07:57:30;24.23;;;17.27;;
29478;SDS011;16437;41.836;23.480;2022-10-22T08:02:57;24.98;;;17.52;;
29478;SDS011;16437;41.836;23.480;2022-10-22T08:08:24;25.72;;;18.25;;
29478;SDS011;16437;41.836;23.480;2022-10-22T08:13:52;24.55;;;17.20;;
29478;SDS011;16437;41.836;23.480;2022-10-22T08:19:19;22.70;;;16.70;;
29478;SDS011;16437;41.836;23.480;2022-10-22T08:24:45;25.00;;;17.87;;
29478;SDS011;16437;41.836;23.480;2022-10-22T08:30:13;22.90;;;17.07;;
29478;SDS011;16437;41.836;23.480;2022-10-22T08:35:40;23.27;;;16.60;;
29478;SDS011;16437;41.836;23.480;2022-10-22T08:41:14;25.50;;;18.00;;
29478;SDS011;16437;41.836;23.480;2022-10-22T08:46:58;24.47;;;16.75;;
29478;SDS011;16437;41.836;23.480;2022-10-22T08:52:30;22.32;;;16.45;;
29478;SDS011;16437;41.836;23.480;2022-10-22T08:58:09;22.62;;;16.62;;
29478;SDS011;16437;41.836;23.480;2022-10-22T09:09:25;27.73;;;16.57;;
29478;SDS011;16437;41.836;23.480;2022-10-22T09:14:53;22.32;;;16.10;;
29478;SDS011;16437;41.836;23.480;2022-10-22T09:20:25;25.35;;;16.97;;
29478;SDS011;16437;41.836;23.480;2022-10-22T09:25:52;21.33;;;15.43;;
29478;SDS011;16437;41.836;23.480;2022-10-22T09:31:20;28.57;;;17.35;;
29478;SDS011;16437;41.836;23.480;2022-10-22T09:36:47;30.27;;;17.40;;
29478;SDS011;16437;41.836;23.480;2022-10-22T09:42:15;28.02;;;16.82;;
29478;SDS011;16437;41.836;23.480;2022-10-22T09:47:43;32.98;;;16.97;;
29478;SDS011;16437;41.836;23.480;2022-10-22T09:53:24;44.42;;;17.50;;
29478;SDS011;16437;41.836;23.480;2022-10-22T09:58:51;55.00;;;17.52;;
29478;SDS011;16437;41.836;23.480;2022-10-22T10:04:19;44.13;;;16.75;;
29478;SDS011;16437;41.836;23.480;2022-10-22T10:09:47;45.92;;;17.32;;
29478;SDS011;16437;41.836;23.480;2022-10-22T10:15:17;48.42;;;17.65;;
29478;SDS011;16437;41.836;23.480;2022-10-22T10:49:23;42.03;;;16.00;;
29478;SDS011;16437;41.836;23.480;2022-10-22T11:00:42;31.15;;;13.98;;
29478;SDS011;16437;41.836;23.480;2022-10-22T11:06:13;26.10;;;13.43;;
29478;SDS011;16437;41.836;23.480;2022-10-22T11:11:46;34.92;;;13.75;;
29478;SDS011;16437;41.836;23.480;2022-10-22T11:17:15;27.40;;;13.65;;
29478;SDS011;16437;41.836;23.480;2022-10-22T11:22:47;34.67;;;14.50;;
29478;SDS011;16437;41.836;23.480;2022-10-22T11:28:25;32.15;;;14.18;;
29478;SDS011;16437;41.836;23.480;2022-10-22T11:39:56;26.75;;;13.45;;
29478;SDS011;16437;41.836;23.480;2022-10-22T11:50:56;22.30;;;12.50;;
29478;SDS011;16437;41.836;23.480;2022-10-22T11:56:25;22.20;;;11.97;;
29478;SDS011;16437;41.836;23.480;2022-10-22T12:01:54;24.60;;;12.43;;
29478;SDS011;16437;41.836;23.480;2022-10-22T12:13:21;23.10;;;12.10;;
29478;SDS011;16437;41.836;23.480;2022-10-22T12:18:38;22.13;;;11.73;;
29478;SDS011;16437;41.836;23.480;2022-10-22T12:24:06;19.23;;;11.45;;
29478;SDS011;16437;41.836;23.480;2022-10-22T12:29:35;17.57;;;10.25;;
29478;SDS011;16437;41.836;23.480;2022-10-22T12:35:06;14.80;;;10.20;;
29478;SDS011;16437;41.836;23.480;2022-10-22T12:40:38;16.67;;;10.98;;
29478;SDS011;16437;41.836;23.480;2022-10-22T12:46:08;17.32;;;10.90;;
29478;SDS011;16437;41.836;23.480;2022-10-22T12:51:36;17.03;;;10.40;;
29478;SDS011;16437;41.836;23.480;2022-10-22T12:57:02;15.68;;;10.28;;
29478;SDS011;16437;41.836;23.480;2022-10-22T13:02:29;14.83;;;10.38;;
29478;SDS011;16437;41.836;23.480;2022-10-22T13:08:04;16.62;;;10.82;;
29478;SDS011;16437;41.836;23.480;2022-10-22T13:13:46;19.80;;;11.05;;
29478;SDS011;16437;41.836;23.480;2022-10-22T13:19:03;17.67;;;10.58;;
29478;SDS011;16437;41.836;23.480;2022-10-22T13:24:29;20.40;;;10.75;;
29478;SDS011;16437;41.836;23.480;2022-10-22T13:29:56;18.45;;;10.03;;
29478;SDS011;16437;41.836;23.480;2022-10-22T13:35:29;15.70;;;9.90;;
29478;SDS011;16437;41.836;23.480;2022-10-22T13:40:57;17.00;;;10.88;;
29478;SDS011;16437;41.836;23.480;2022-10-22T13:46:25;14.50;;;9.25;;
29478;SDS011;16437;41.836;23.480;2022-10-22T13:51:52;15.55;;;9.40;;
29478;SDS011;16437;41.836;23.480;2022-10-22T13:57:19;15.25;;;9.28;;
29478;SDS011;16437;41.836;23.480;2022-10-22T14:02:46;15.23;;;8.95;;
29478;SDS011;16437;41.836;23.480;2022-10-22T14:08:16;12.65;;;9.25;;
29478;SDS011;16437;41.836;23.480;2022-10-22T14:13:44;17.45;;;8.68;;
29478;SDS011;16437;41.836;23.480;2022-10-22T14:19:13;11.43;;;8.78;;
29478;SDS011;16437;41.836;23.480;2022-10-22T14:24:39;12.43;;;8.78;;
29478;SDS011;16437;41.836;23.480;2022-10-22T14:30:06;12.10;;;7.58;;
29478;SDS011;16437;41.836;23.480;2022-10-22T14:35:33;11.38;;;7.87;;
29478;SDS011;16437;41.836;23.480;2022-10-22T14:40:59;10.98;;;7.53;;
29478;SDS011;16437;41.836;23.480;2022-10-22T14:46:26;14.15;;;8.68;;
29478;SDS011;16437;41.836;23.480;2022-10-22T14:51:53;14.95;;;7.87;;
29478;SDS011;16437;41.836;23.480;2022-10-22T14:57:19;11.57;;;7.25;;
29478;SDS011;16437;41.836;23.480;2022-10-22T15:02:46;11.70;;;7.20;;
29478;SDS011;16437;41.836;23.480;2022-10-22T15:08:13;15.70;;;7.33;;
29478;SDS011;16437;41.836;23.480;2022-10-22T15:13:39;9.63;;;7.05;;
29478;SDS011;16437;41.836;23.480;2022-10-22T15:19:07;11.78;;;6.90;;
29478;SDS011;16437;41.836;23.480;2022-10-22T15:24:34;10.58;;;6.85;;
29478;SDS011;16437;41.836;23.480;2022-10-22T15:30:02;13.45;;;6.72;;
29478;SDS011;16437;41.836;23.480;2022-10-22T15:35:29;11.85;;;6.33;;
29478;SDS011;16437;41.836;23.480;2022-10-22T15:41:03;10.93;;;6.40;;
29478;SDS011;16437;41.836;23.480;2022-10-22T15:46:31;14.25;;;6.58;;
29478;SDS011;16437;41.836;23.480;2022-10-22T15:51:58;12.07;;;6.35;;
29478;SDS011;16437;41.836;23.480;2022-10-22T15:57:25;10.55;;;6.70;;
29478;SDS011;16437;41.836;23.480;2022-10-22T16:02:52;9.60;;;6.53;;
29478;SDS011;16437;41.836;23.480;2022-10-22T16:08:19;9.53;;;6.20;;
29478;SDS011;16437;41.836;23.480;2022-10-22T16:13:45;11.63;;;6.70;;
29478;SDS011;16437;41.836;23.480;2022-10-22T16:19:12;11.20;;;6.28;;
29478;SDS011;16437;41.836;23.480;2022-10-22T16:24:39;11.63;;;5.83;;
29478;SDS011;16437;41.836;23.480;2022-10-22T16:30:06;11.78;;;6.17;;
29478;SDS011;16437;41.836;23.480;2022-10-22T16:35:37;9.88;;;6.37;;
29478;SDS011;16437;41.836;23.480;2022-10-22T16:41:11;12.35;;;6.22;;
29478;SDS011;16437;41.836;23.480;2022-10-22T16:46:35;12.73;;;6.33;;
29478;SDS011;16437;41.836;23.480;2022-10-22T16:52:01;14.33;;;6.30;;
29478;SDS011;16437;41.836;23.480;2022-10-22T16:57:28;13.13;;;6.30;;
29478;SDS011;16437;41.836;23.480;2022-10-22T17:02:55;11.38;;;6.28;;
29478;SDS011;16437;41.836;23.480;2022-10-22T17:08:22;11.70;;;5.62;;
29478;SDS011;16437;41.836;23.480;2022-10-22T17:13:49;16.17;;;6.37;;
29478;SDS011;16437;41.836;23.480;2022-10-22T17:19:17;12.50;;;6.50;;
29478;SDS011;16437;41.836;23.480;2022-10-22T17:24:43;14.03;;;7.10;;
29478;SDS011;16437;41.836;23.480;2022-10-22T17:30:17;8.80;;;5.90;;
29478;SDS011;16437;41.836;23.480;2022-10-22T17:35:44;12.37;;;6.55;;
29478;SDS011;16437;41.836;23.480;2022-10-22T17:41:14;14.80;;;6.35;;
29478;SDS011;16437;41.836;23.480;2022-10-22T17:46:41;13.03;;;6.92;;
29478;SDS011;16437;41.836;23.480;2022-10-22T17:52:09;13.93;;;6.67;;
29478;SDS011;16437;41.836;23.480;2022-10-22T17:57:38;14.03;;;6.67;;
29478;SDS011;16437;41.836;23.480;2022-10-22T18:03:04;14.55;;;6.92;;
29478;SDS011;16437;41.836;23.480;2022-10-22T18:08:30;16.73;;;7.67;;
29478;SDS011;16437;41.836;23.480;2022-10-22T18:13:56;14.03;;;6.87;;
29478;SDS011;16437;41.836;23.480;2022-10-22T18:19:24;17.25;;;7.12;;
29478;SDS011;16437;41.836;23.480;2022-10-22T18:24:50;14.65;;;7.35;;
29478;SDS011;16437;41.836;23.480;2022-10-22T18:30:16;14.13;;;6.80;;
29478;SDS011;16437;41.836;23.480;2022-10-22T18:35:44;16.77;;;7.20;;
29478;SDS011;16437;41.836;23.480;2022-10-22T18:41:12;12.90;;;6.55;;
29478;SDS011;16437;41.836;23.480;2022-10-22T18:46:38;13.53;;;6.92;;
29478;SDS011;16437;41.836;23.480;2022-10-22T18:52:05;14.53;;;7.22;;
29478;SDS011;16437;41.836;23.480;2022-10-22T18:57:31;17.30;;;7.40;;
29478;SDS011;16437;41.836;23.480;2022-10-22T19:02:58;12.88;;;6.97;;
29478;SDS011;16437;41.836;23.480;2022-10-22T19:08:24;10.20;;;6.08;;
29478;SDS011;16437;41.836;23.480;2022-10-22T19:13:51;15.00;;;7.12;;
29478;SDS011;16437;41.836;23.480;2022-10-22T19:19:18;11.22;;;7.15;;
29478;SDS011;16437;41.836;23.480;2022-10-22T19:24:49;13.35;;;6.45;;
29478;SDS011;16437;41.836;23.480;2022-10-22T19:30:16;17.25;;;7.22;;
29478;SDS011;16437;41.836;23.480;2022-10-22T19:35:44;11.05;;;6.03;;
29478;SDS011;16437;41.836;23.480;2022-10-22T19:41:11;12.18;;;6.80;;
29478;SDS011;16437;41.836;23.480;2022-10-22T19:46:39;14.15;;;6.40;;
29478;SDS011;16437;41.836;23.480;2022-10-22T19:52:06;12.20;;;6.67;;
29478;SDS011;16437;41.836;23.480;2022-10-22T19:57:32;15.68;;;6.58;;
29478;SDS011;16437;41.836;23.480;2022-10-22T20:02:59;12.40;;;6.80;;
29478;SDS011;16437;41.836;23.480;2022-10-22T20:08:25;11.08;;;6.00;;
29478;SDS011;16437;41.836;23.480;2022-10-22T20:13:52;13.93;;;6.05;;
29478;SDS011;16437;41.836;23.480;2022-10-22T20:19:20;13.38;;;6.15;;
29478;SDS011;16437;41.836;23.480;2022-10-22T20:24:47;10.35;;;5.75;;
29478;SDS011;16437;41.836;23.480;2022-10-22T20:30:14;11.35;;;6.25;;
29478;SDS011;16437;41.836;23.480;2022-10-22T20:35:42;16.17;;;6.55;;
29478;SDS011;16437;41.836;23.480;2022-10-22T20:41:10;12.50;;;6.42;;
29478;SDS011;16437;41.836;23.480;2022-10-22T20:46:37;10.85;;;6.10;;
29478;SDS011;16437;41.836;23.480;2022-10-22T20:52:04;11.65;;;6.33;;
29478;SDS011;16437;41.836;23.480;2022-10-22T20:57:30;11.88;;;6.75;;
29478;SDS011;16437;41.836;23.480;2022-10-22T21:02:57;14.65;;;6.30;;
29478;SDS011;16437;41.836;23.480;2022-10-22T21:08:24;12.78;;;6.75;;
29478;SDS011;16437;41.836;23.480;2022-10-22T21:13:50;12.45;;;6.65;;
29478;SDS011;16437;41.836;23.480;2022-10-22T21:19:17;9.58;;;5.87;;
29478;SDS011;16437;41.836;23.480;2022-10-22T21:24:45;10.35;;;5.90;;
29478;SDS011;16437;41.836;23.480;2022-10-22T21:30:11;11.33;;;5.80;;
29478;SDS011;16437;41.836;23.480;2022-10-22T21:35:38;12.20;;;6.10;;
29478;SDS011;16437;41.836;23.480;2022-10-22T21:41:05;11.93;;;6.15;;
29478;SDS011;16437;41.836;23.480;2022-10-22T21:46:33;10.10;;;5.85;;
29478;SDS011;16437;41.836;23.480;2022-10-22T21:52:00;11.65;;;5.65;;
29478;SDS011;16437;41.836;23.480;2022-10-22T21:57:27;14.45;;;6.40;;
29478;SDS011;16437;41.836;23.480;2022-10-22T22:02:53;10.08;;;5.75;;
29478;SDS011;16437;41.836;23.480;2022-10-22T22:08:20;13.05;;;6.85;;
29478;SDS011;16437;41.836;23.480;2022-10-22T22:13:46;10.70;;;6.30;;
29478;SDS011;16437;41.836;23.480;2022-10-22T22:19:14;11.12;;;5.65;;
29478;SDS011;16437;41.836;23.480;2022-10-22T22:24:40;11.38;;;5.85;;
29478;SDS011;16437;41.836;23.480;2022-10-22T22:30:07;11.43;;;5.92;;
29478;SDS011;16437;41.836;23.480;2022-10-22T22:35:34;11.15;;;6.15;;
29478;SDS011;16437;41.836;23.480;2022-10-22T22:41:01;10.85;;;6.28;;
29478;SDS011;16437;41.836;23.480;2022-10-22T22:46:28;11.45;;;5.80;;
29478;SDS011;16437;41.836;23.480;2022-10-22T22:51:54;13.53;;;5.80;;
29478;SDS011;16437;41.836;23.480;2022-10-22T22:57:21;13.20;;;6.62;;
29478;SDS011;16437;41.836;23.480;2022-10-22T23:02:47;10.72;;;5.72;;
29478;SDS011;16437;41.836;23.480;2022-10-22T23:08:16;11.65;;;5.83;;
29478;SDS011;16437;41.836;23.480;2022-10-22T23:13:42;9.23;;;5.58;;
29478;SDS011;16437;41.836;23.480;2022-10-22T23:19:09;10.58;;;5.78;;
29478;SDS011;16437;41.836;23.480;2022-10-22T23:24:37;10.63;;;6.20;;
29478;SDS011;16437;41.836;23.480;2022-10-22T23:30:04;11.88;;;6.22;;
29478;SDS011;16437;41.836;23.480;2022-10-22T23:35:31;10.55;;;5.47;;
29478;SDS011;16437;41.836;23.480;2022-10-22T23:40:58;9.63;;;5.97;;
29478;SDS011;16437;41.836;23.480;2022-10-22T23:46:25;13.03;;;6.15;;
29478;SDS011;16437;41.836;23.480;2022-10-22T23:51:51;10.82;;;5.90;;
29478;SDS011;16437;41.836;23.480;2022-10-22T23:57:17;9.83;;;6.05;;
